sensor_id;sensor_type;location;lat;lon;timestamp;P1;durP1;ratioP1;P2;durP2;ratioP2
5785;SDS011;2919;48.630;9.000;2023-12-20T00:00:53;1.90;;;0.73;;
5785;SDS011;2919;48.630;9.000;2023-12-20T00:03:19;1.83;;;0.70;;
5785;SDS011;2919;48.630;9.000;2023-12-20T00:05:45;1.30;;;0.63;;
5785;SDS011;2919;48.630;9.000;2023-12-20T00:08:10;2.70;;;0.70;;
5785;SDS011;2919;48.630;9.000;2023-12-20T00:10:36;1.20;;;0.57;;
5785;SDS011;2919;48.630;9.000;2023-12-20T00:13:01;3.47;;;1.00;;
5785;SDS011;2919;48.630;9.000;2023-12-20T00:15:27;1.30;;;0.57;;
5785;SDS011;2919;48.630;9.000;2023-12-20T00:17:52;2.47;;;0.70;;
5785;SDS011;2919;48.630;9.000;2023-12-20T00:20:18;1.60;;;0.60;;
5785;SDS011;2919;48.630;9.000;2023-12-20T00:22:43;1.23;;;0.77;;
5785;SDS011;2919;48.630;9.000;2023-12-20T00:25:09;1.50;;;0.70;;
5785;SDS011;2919;48.630;9.000;2023-12-20T00:27:34;1.30;;;0.60;;
5785;SDS011;2919;48.630;9.000;2023-12-20T00:30:00;1.40;;;0.70;;
5785;SDS011;2919;48.630;9.000;2023-12-20T00:32:25;1.53;;;0.77;;
5785;SDS011;2919;48.630;9.000;2023-12-20T00:34:51;2.37;;;0.77;;
5785;SDS011;2919;48.630;9.000;2023-12-20T00:37:16;1.60;;;0.70;;
5785;SDS011;2919;48.630;9.000;2023-12-20T00:39:42;1.40;;;0.50;;
5785;SDS011;2919;48.630;9.000;2023-12-20T00:42:07;2.17;;;0.83;;
5785;SDS011;2919;48.630;9.000;2023-12-20T00:44:33;1.40;;;0.80;;
5785;SDS011;2919;48.630;9.000;2023-12-20T00:46:58;1.20;;;0.60;;
5785;SDS011;2919;48.630;9.000;2023-12-20T00:49:24;1.47;;;0.73;;
5785;SDS011;2919;48.630;9.000;2023-12-20T00:51:49;1.23;;;0.50;;
5785;SDS011;2919;48.630;9.000;2023-12-20T00:54:15;1.10;;;0.50;;
5785;SDS011;2919;48.630;9.000;2023-12-20T00:56:41;1.30;;;0.70;;
5785;SDS011;2919;48.630;9.000;2023-12-20T00:59:06;1.20;;;0.60;;
5785;SDS011;2919;48.630;9.000;2023-12-20T01:01:32;2.90;;;0.60;;
5785;SDS011;2919;48.630;9.000;2023-12-20T01:03:58;2.23;;;1.03;;
5785;SDS011;2919;48.630;9.000;2023-12-20T01:06:23;2.70;;;0.90;;
5785;SDS011;2919;48.630;9.000;2023-12-20T01:08:49;1.80;;;0.90;;
5785;SDS011;2919;48.630;9.000;2023-12-20T01:11:14;4.50;;;0.87;;
5785;SDS011;2919;48.630;9.000;2023-12-20T01:13:40;1.50;;;0.80;;
5785;SDS011;2919;48.630;9.000;2023-12-20T01:16:05;1.70;;;0.73;;
5785;SDS011;2919;48.630;9.000;2023-12-20T01:18:31;1.80;;;1.00;;
5785;SDS011;2919;48.630;9.000;2023-12-20T01:21:01;1.30;;;0.63;;
5785;SDS011;2919;48.630;9.000;2023-12-20T01:23:28;4.40;;;0.97;;
5785;SDS011;2919;48.630;9.000;2023-12-20T01:25:53;1.40;;;0.70;;
5785;SDS011;2919;48.630;9.000;2023-12-20T01:28:19;3.47;;;1.33;;
5785;SDS011;2919;48.630;9.000;2023-12-20T01:30:44;1.40;;;0.63;;
5785;SDS011;2919;48.630;9.000;2023-12-20T01:33:10;1.30;;;0.70;;
5785;SDS011;2919;48.630;9.000;2023-12-20T01:35:35;1.37;;;0.63;;
5785;SDS011;2919;48.630;9.000;2023-12-20T01:38:02;2.43;;;0.70;;
5785;SDS011;2919;48.630;9.000;2023-12-20T01:40:27;1.87;;;0.90;;
5785;SDS011;2919;48.630;9.000;2023-12-20T01:43:08;1.63;;;0.73;;
5785;SDS011;2919;48.630;9.000;2023-12-20T01:45:34;1.20;;;0.60;;
5785;SDS011;2919;48.630;9.000;2023-12-20T01:48:00;1.73;;;1.00;;
5785;SDS011;2919;48.630;9.000;2023-12-20T01:50:27;1.90;;;0.90;;
5785;SDS011;2919;48.630;9.000;2023-12-20T01:52:53;1.50;;;0.60;;
5785;SDS011;2919;48.630;9.000;2023-12-20T01:55:22;1.40;;;0.77;;
5785;SDS011;2919;48.630;9.000;2023-12-20T01:57:49;1.60;;;0.70;;
5785;SDS011;2919;48.630;9.000;2023-12-20T02:00:15;1.37;;;0.63;;
5785;SDS011;2919;48.630;9.000;2023-12-20T02:02:41;1.30;;;0.70;;
5785;SDS011;2919;48.630;9.000;2023-12-20T02:05:08;1.20;;;0.50;;
5785;SDS011;2919;48.630;9.000;2023-12-20T02:07:34;1.40;;;0.70;;
5785;SDS011;2919;48.630;9.000;2023-12-20T02:10:00;1.30;;;0.60;;
5785;SDS011;2919;48.630;9.000;2023-12-20T02:12:26;1.27;;;0.50;;
5785;SDS011;2919;48.630;9.000;2023-12-20T02:14:52;1.10;;;0.60;;
5785;SDS011;2919;48.630;9.000;2023-12-20T02:17:18;1.10;;;0.53;;
5785;SDS011;2919;48.630;9.000;2023-12-20T02:19:44;1.10;;;0.50;;
5785;SDS011;2919;48.630;9.000;2023-12-20T02:22:10;1.10;;;0.57;;
5785;SDS011;2919;48.630;9.000;2023-12-20T02:24:36;1.23;;;0.70;;
5785;SDS011;2919;48.630;9.000;2023-12-20T02:27:02;1.10;;;0.60;;
5785;SDS011;2919;48.630;9.000;2023-12-20T02:29:30;1.27;;;0.60;;
5785;SDS011;2919;48.630;9.000;2023-12-20T02:31:56;1.30;;;0.70;;
5785;SDS011;2919;48.630;9.000;2023-12-20T02:34:21;1.60;;;0.83;;
5785;SDS011;2919;48.630;9.000;2023-12-20T02:36:46;2.07;;;0.70;;
5785;SDS011;2919;48.630;9.000;2023-12-20T02:39:12;0.97;;;0.40;;
5785;SDS011;2919;48.630;9.000;2023-12-20T02:41:38;1.33;;;0.67;;
5785;SDS011;2919;48.630;9.000;2023-12-20T02:44:03;1.43;;;0.60;;
5785;SDS011;2919;48.630;9.000;2023-12-20T02:46:29;1.10;;;0.50;;
5785;SDS011;2919;48.630;9.000;2023-12-20T02:48:54;1.10;;;0.50;;
5785;SDS011;2919;48.630;9.000;2023-12-20T02:51:20;1.40;;;0.60;;
5785;SDS011;2919;48.630;9.000;2023-12-20T02:53:45;1.40;;;0.57;;
5785;SDS011;2919;48.630;9.000;2023-12-20T02:56:11;1.20;;;0.43;;
5785;SDS011;2919;48.630;9.000;2023-12-20T02:58:36;1.20;;;0.50;;
5785;SDS011;2919;48.630;9.000;2023-12-20T03:01:02;1.40;;;0.70;;
5785;SDS011;2919;48.630;9.000;2023-12-20T03:03:27;3.00;;;0.60;;
5785;SDS011;2919;48.630;9.000;2023-12-20T03:05:53;1.10;;;0.50;;
5785;SDS011;2919;48.630;9.000;2023-12-20T03:08:18;1.00;;;0.40;;
5785;SDS011;2919;48.630;9.000;2023-12-20T03:10:44;1.10;;;0.50;;
5785;SDS011;2919;48.630;9.000;2023-12-20T03:13:10;1.00;;;0.40;;
5785;SDS011;2919;48.630;9.000;2023-12-20T03:15:35;1.20;;;0.50;;
5785;SDS011;2919;48.630;9.000;2023-12-20T03:18:02;1.00;;;0.50;;
5785;SDS011;2919;48.630;9.000;2023-12-20T03:20:27;1.00;;;0.50;;
5785;SDS011;2919;48.630;9.000;2023-12-20T03:22:53;1.60;;;0.67;;
5785;SDS011;2919;48.630;9.000;2023-12-20T03:25:18;1.53;;;0.50;;
5785;SDS011;2919;48.630;9.000;2023-12-20T03:27:44;1.10;;;0.50;;
5785;SDS011;2919;48.630;9.000;2023-12-20T03:30:09;1.00;;;0.50;;
5785;SDS011;2919;48.630;9.000;2023-12-20T03:32:35;1.40;;;0.50;;
5785;SDS011;2919;48.630;9.000;2023-12-20T03:35:02;3.77;;;0.50;;
5785;SDS011;2919;48.630;9.000;2023-12-20T03:37:28;1.00;;;0.40;;
5785;SDS011;2919;48.630;9.000;2023-12-20T03:39:53;1.43;;;0.60;;
5785;SDS011;2919;48.630;9.000;2023-12-20T03:42:19;1.10;;;0.40;;
5785;SDS011;2919;48.630;9.000;2023-12-20T03:44:44;1.73;;;0.57;;
5785;SDS011;2919;48.630;9.000;2023-12-20T03:47:10;1.00;;;0.40;;
5785;SDS011;2919;48.630;9.000;2023-12-20T03:49:35;1.00;;;0.40;;
5785;SDS011;2919;48.630;9.000;2023-12-20T03:52:02;1.00;;;0.40;;
5785;SDS011;2919;48.630;9.000;2023-12-20T03:54:28;1.10;;;0.50;;
5785;SDS011;2919;48.630;9.000;2023-12-20T03:56:53;2.50;;;0.50;;
5785;SDS011;2919;48.630;9.000;2023-12-20T03:59:19;1.30;;;0.70;;
5785;SDS011;2919;48.630;9.000;2023-12-20T04:01:45;1.20;;;0.60;;
5785;SDS011;2919;48.630;9.000;2023-12-20T04:04:11;1.10;;;0.50;;
5785;SDS011;2919;48.630;9.000;2023-12-20T04:06:37;1.00;;;0.40;;
5785;SDS011;2919;48.630;9.000;2023-12-20T04:09:03;1.00;;;0.50;;
5785;SDS011;2919;48.630;9.000;2023-12-20T04:11:28;1.00;;;0.40;;
5785;SDS011;2919;48.630;9.000;2023-12-20T04:13:54;1.10;;;0.43;;
5785;SDS011;2919;48.630;9.000;2023-12-20T04:16:19;1.00;;;0.40;;
5785;SDS011;2919;48.630;9.000;2023-12-20T04:18:45;1.00;;;0.40;;
5785;SDS011;2919;48.630;9.000;2023-12-20T04:21:10;1.00;;;0.40;;
5785;SDS011;2919;48.630;9.000;2023-12-20T04:23:35;1.00;;;0.40;;
5785;SDS011;2919;48.630;9.000;2023-12-20T04:26:01;1.00;;;0.40;;
5785;SDS011;2919;48.630;9.000;2023-12-20T04:28:27;1.00;;;0.40;;
5785;SDS011;2919;48.630;9.000;2023-12-20T04:30:55;1.00;;;0.40;;
5785;SDS011;2919;48.630;9.000;2023-12-20T04:33:20;1.00;;;0.40;;
5785;SDS011;2919;48.630;9.000;2023-12-20T04:35:46;1.10;;;0.40;;
5785;SDS011;2919;48.630;9.000;2023-12-20T04:38:11;1.00;;;0.40;;
5785;SDS011;2919;48.630;9.000;2023-12-20T04:40:37;1.10;;;0.40;;
5785;SDS011;2919;48.630;9.000;2023-12-20T04:43:03;1.00;;;0.40;;
5785;SDS011;2919;48.630;9.000;2023-12-20T04:45:29;1.20;;;0.60;;
5785;SDS011;2919;48.630;9.000;2023-12-20T04:47:55;4.97;;;0.60;;
5785;SDS011;2919;48.630;9.000;2023-12-20T04:50:21;1.10;;;0.50;;
5785;SDS011;2919;48.630;9.000;2023-12-20T04:52:46;1.37;;;0.53;;
5785;SDS011;2919;48.630;9.000;2023-12-20T04:55:12;2.50;;;0.73;;
5785;SDS011;2919;48.630;9.000;2023-12-20T04:57:37;1.50;;;0.50;;
5785;SDS011;2919;48.630;9.000;2023-12-20T05:00:03;1.50;;;0.63;;
5785;SDS011;2919;48.630;9.000;2023-12-20T05:02:29;1.10;;;0.50;;
5785;SDS011;2919;48.630;9.000;2023-12-20T05:04:55;1.00;;;0.40;;
5785;SDS011;2919;48.630;9.000;2023-12-20T05:07:20;1.00;;;0.50;;
5785;SDS011;2919;48.630;9.000;2023-12-20T05:09:46;1.10;;;0.60;;
5785;SDS011;2919;48.630;9.000;2023-12-20T05:12:11;1.20;;;0.50;;
5785;SDS011;2919;48.630;9.000;2023-12-20T05:14:37;1.20;;;0.53;;
5785;SDS011;2919;48.630;9.000;2023-12-20T05:17:02;1.03;;;0.40;;
5785;SDS011;2919;48.630;9.000;2023-12-20T05:19:28;1.00;;;0.40;;
5785;SDS011;2919;48.630;9.000;2023-12-20T05:21:54;1.17;;;0.40;;
5785;SDS011;2919;48.630;9.000;2023-12-20T05:24:19;1.10;;;0.40;;
5785;SDS011;2919;48.630;9.000;2023-12-20T05:26:45;1.30;;;0.60;;
5785;SDS011;2919;48.630;9.000;2023-12-20T05:29:11;2.03;;;0.90;;
5785;SDS011;2919;48.630;9.000;2023-12-20T05:31:36;1.00;;;0.40;;
5785;SDS011;2919;48.630;9.000;2023-12-20T05:34:02;1.00;;;0.40;;
5785;SDS011;2919;48.630;9.000;2023-12-20T05:36:27;1.00;;;0.40;;
5785;SDS011;2919;48.630;9.000;2023-12-20T05:38:53;1.00;;;0.40;;
5785;SDS011;2919;48.630;9.000;2023-12-20T05:41:18;1.00;;;0.40;;
5785;SDS011;2919;48.630;9.000;2023-12-20T05:43:44;1.00;;;0.40;;
5785;SDS011;2919;48.630;9.000;2023-12-20T05:46:10;1.10;;;0.50;;
5785;SDS011;2919;48.630;9.000;2023-12-20T05:48:37;1.00;;;0.40;;
5785;SDS011;2919;48.630;9.000;2023-12-20T05:51:02;1.00;;;0.40;;
5785;SDS011;2919;48.630;9.000;2023-12-20T05:53:28;1.00;;;0.40;;
5785;SDS011;2919;48.630;9.000;2023-12-20T05:55:53;1.00;;;0.40;;
5785;SDS011;2919;48.630;9.000;2023-12-20T05:58:19;1.10;;;0.50;;
5785;SDS011;2919;48.630;9.000;2023-12-20T06:00:44;1.20;;;0.50;;
5785;SDS011;2919;48.630;9.000;2023-12-20T06:03:10;1.47;;;0.40;;
5785;SDS011;2919;48.630;9.000;2023-12-20T06:05:35;1.00;;;0.40;;
5785;SDS011;2919;48.630;9.000;2023-12-20T06:08:01;1.00;;;0.40;;
5785;SDS011;2919;48.630;9.000;2023-12-20T06:10:28;11.63;;;0.73;;
5785;SDS011;2919;48.630;9.000;2023-12-20T06:12:53;1.30;;;0.60;;
5785;SDS011;2919;48.630;9.000;2023-12-20T06:15:20;1.00;;;0.40;;
5785;SDS011;2919;48.630;9.000;2023-12-20T06:17:45;1.20;;;0.50;;
5785;SDS011;2919;48.630;9.000;2023-12-20T06:20:11;1.00;;;0.40;;
5785;SDS011;2919;48.630;9.000;2023-12-20T06:22:38;2.00;;;0.90;;
5785;SDS011;2919;48.630;9.000;2023-12-20T06:25:04;3.97;;;1.77;;
5785;SDS011;2919;48.630;9.000;2023-12-20T06:27:30;2.50;;;1.17;;
5785;SDS011;2919;48.630;9.000;2023-12-20T06:29:57;2.13;;;1.00;;
5785;SDS011;2919;48.630;9.000;2023-12-20T06:32:23;2.33;;;0.70;;
5785;SDS011;2919;48.630;9.000;2023-12-20T06:34:49;1.47;;;0.80;;
5785;SDS011;2919;48.630;9.000;2023-12-20T06:37:14;2.40;;;0.87;;
5785;SDS011;2919;48.630;9.000;2023-12-20T06:39:40;1.20;;;0.80;;
5785;SDS011;2919;48.630;9.000;2023-12-20T06:42:06;1.20;;;0.80;;
5785;SDS011;2919;48.630;9.000;2023-12-20T06:44:31;5.00;;;0.90;;
5785;SDS011;2919;48.630;9.000;2023-12-20T06:46:57;1.20;;;0.60;;
5785;SDS011;2919;48.630;9.000;2023-12-20T06:49:23;1.47;;;0.60;;
5785;SDS011;2919;48.630;9.000;2023-12-20T06:51:48;1.30;;;0.70;;
5785;SDS011;2919;48.630;9.000;2023-12-20T06:54:14;1.50;;;0.80;;
5785;SDS011;2919;48.630;9.000;2023-12-20T06:56:39;1.50;;;0.70;;
5785;SDS011;2919;48.630;9.000;2023-12-20T06:59:06;1.50;;;0.60;;
5785;SDS011;2919;48.630;9.000;2023-12-20T07:01:31;1.00;;;0.50;;
5785;SDS011;2919;48.630;9.000;2023-12-20T07:03:57;1.10;;;0.60;;
5785;SDS011;2919;48.630;9.000;2023-12-20T07:06:22;1.20;;;0.50;;
5785;SDS011;2919;48.630;9.000;2023-12-20T07:08:48;1.03;;;0.50;;
5785;SDS011;2919;48.630;9.000;2023-12-20T07:11:14;1.20;;;0.60;;
5785;SDS011;2919;48.630;9.000;2023-12-20T07:13:39;1.00;;;0.40;;
5785;SDS011;2919;48.630;9.000;2023-12-20T07:16:05;1.30;;;0.63;;
5785;SDS011;2919;48.630;9.000;2023-12-20T07:18:31;1.10;;;0.53;;
5785;SDS011;2919;48.630;9.000;2023-12-20T07:20:56;1.50;;;0.80;;
5785;SDS011;2919;48.630;9.000;2023-12-20T07:23:22;1.50;;;0.60;;
5785;SDS011;2919;48.630;9.000;2023-12-20T07:25:47;1.47;;;0.70;;
5785;SDS011;2919;48.630;9.000;2023-12-20T07:28:13;2.80;;;0.70;;
5785;SDS011;2919;48.630;9.000;2023-12-20T07:30:38;1.93;;;0.67;;
5785;SDS011;2919;48.630;9.000;2023-12-20T07:33:04;1.23;;;0.60;;
5785;SDS011;2919;48.630;9.000;2023-12-20T07:35:30;1.10;;;0.50;;
5785;SDS011;2919;48.630;9.000;2023-12-20T07:37:55;1.30;;;0.50;;
5785;SDS011;2919;48.630;9.000;2023-12-20T07:40:21;1.53;;;0.70;;
5785;SDS011;2919;48.630;9.000;2023-12-20T07:42:46;3.83;;;0.70;;
5785;SDS011;2919;48.630;9.000;2023-12-20T07:45:12;1.53;;;0.73;;
5785;SDS011;2919;48.630;9.000;2023-12-20T07:47:37;1.33;;;0.63;;
5785;SDS011;2919;48.630;9.000;2023-12-20T07:50:03;1.07;;;0.43;;
5785;SDS011;2919;48.630;9.000;2023-12-20T07:52:29;1.40;;;0.80;;
5785;SDS011;2919;48.630;9.000;2023-12-20T07:54:55;1.40;;;0.70;;
5785;SDS011;2919;48.630;9.000;2023-12-20T07:57:20;1.10;;;0.57;;
5785;SDS011;2919;48.630;9.000;2023-12-20T07:59:46;2.00;;;1.00;;
5785;SDS011;2919;48.630;9.000;2023-12-20T08:02:12;9.50;;;1.07;;
5785;SDS011;2919;48.630;9.000;2023-12-20T08:04:37;1.87;;;0.80;;
5785;SDS011;2919;48.630;9.000;2023-12-20T08:07:03;3.50;;;1.40;;
5785;SDS011;2919;48.630;9.000;2023-12-20T08:09:29;3.83;;;1.57;;
5785;SDS011;2919;48.630;9.000;2023-12-20T08:11:54;2.60;;;1.17;;
5785;SDS011;2919;48.630;9.000;2023-12-20T08:14:20;2.50;;;1.40;;
5785;SDS011;2919;48.630;9.000;2023-12-20T08:16:45;1.60;;;0.70;;
5785;SDS011;2919;48.630;9.000;2023-12-20T08:19:11;2.37;;;1.27;;
5785;SDS011;2919;48.630;9.000;2023-12-20T08:21:37;2.47;;;1.47;;
5785;SDS011;2919;48.630;9.000;2023-12-20T08:24:02;1.93;;;1.30;;
5785;SDS011;2919;48.630;9.000;2023-12-20T08:26:28;4.77;;;1.50;;
5785;SDS011;2919;48.630;9.000;2023-12-20T08:28:54;3.40;;;1.50;;
5785;SDS011;2919;48.630;9.000;2023-12-20T08:31:19;2.60;;;1.33;;
5785;SDS011;2919;48.630;9.000;2023-12-20T08:33:46;2.03;;;1.27;;
5785;SDS011;2919;48.630;9.000;2023-12-20T08:36:13;2.80;;;1.47;;
5785;SDS011;2919;48.630;9.000;2023-12-20T08:38:39;3.07;;;1.47;;
5785;SDS011;2919;48.630;9.000;2023-12-20T08:41:05;2.83;;;1.37;;
5785;SDS011;2919;48.630;9.000;2023-12-20T08:43:31;3.37;;;1.40;;
5785;SDS011;2919;48.630;9.000;2023-12-20T08:45:57;1.40;;;0.80;;
5785;SDS011;2919;48.630;9.000;2023-12-20T08:48:22;2.90;;;1.27;;
5785;SDS011;2919;48.630;9.000;2023-12-20T08:50:48;3.67;;;1.00;;
5785;SDS011;2919;48.630;9.000;2023-12-20T08:53:15;1.70;;;1.03;;
5785;SDS011;2919;48.630;9.000;2023-12-20T08:55:41;2.57;;;1.33;;
5785;SDS011;2919;48.630;9.000;2023-12-20T08:58:07;1.70;;;0.97;;
5785;SDS011;2919;48.630;9.000;2023-12-20T09:00:33;1.40;;;0.93;;
5785;SDS011;2919;48.630;9.000;2023-12-20T09:02:59;2.93;;;1.40;;
5785;SDS011;2919;48.630;9.000;2023-12-20T09:05:25;2.30;;;1.20;;
5785;SDS011;2919;48.630;9.000;2023-12-20T09:07:50;3.37;;;1.47;;
5785;SDS011;2919;48.630;9.000;2023-12-20T09:10:16;4.10;;;0.90;;
5785;SDS011;2919;48.630;9.000;2023-12-20T09:12:46;6.97;;;1.70;;
5785;SDS011;2919;48.630;9.000;2023-12-20T09:15:25;2.40;;;1.30;;
5785;SDS011;2919;48.630;9.000;2023-12-20T09:17:51;1.97;;;0.90;;
5785;SDS011;2919;48.630;9.000;2023-12-20T09:20:17;2.00;;;0.87;;
5785;SDS011;2919;48.630;9.000;2023-12-20T09:22:43;3.93;;;0.93;;
5785;SDS011;2919;48.630;9.000;2023-12-20T09:25:09;4.53;;;1.23;;
5785;SDS011;2919;48.630;9.000;2023-12-20T09:27:36;6.50;;;1.60;;
5785;SDS011;2919;48.630;9.000;2023-12-20T09:30:02;2.77;;;0.90;;
5785;SDS011;2919;48.630;9.000;2023-12-20T09:32:29;6.87;;;1.30;;
5785;SDS011;2919;48.630;9.000;2023-12-20T09:34:54;2.20;;;1.23;;
5785;SDS011;2919;48.630;9.000;2023-12-20T09:37:20;2.77;;;1.03;;
5785;SDS011;2919;48.630;9.000;2023-12-20T09:39:45;4.47;;;1.50;;
5785;SDS011;2919;48.630;9.000;2023-12-20T09:42:11;2.30;;;1.27;;
5785;SDS011;2919;48.630;9.000;2023-12-20T09:44:40;7.10;;;0.80;;
5785;SDS011;2919;48.630;9.000;2023-12-20T09:47:07;12.13;;;1.10;;
5785;SDS011;2919;48.630;9.000;2023-12-20T09:49:33;2.73;;;1.50;;
5785;SDS011;2919;48.630;9.000;2023-12-20T09:52:00;4.90;;;1.97;;
5785;SDS011;2919;48.630;9.000;2023-12-20T09:54:26;2.70;;;1.07;;
5785;SDS011;2919;48.630;9.000;2023-12-20T09:56:53;3.20;;;1.30;;
5785;SDS011;2919;48.630;9.000;2023-12-20T09:59:19;3.10;;;1.50;;
5785;SDS011;2919;48.630;9.000;2023-12-20T10:01:45;3.37;;;1.20;;
5785;SDS011;2919;48.630;9.000;2023-12-20T10:04:11;3.03;;;1.17;;
5785;SDS011;2919;48.630;9.000;2023-12-20T10:06:41;1.50;;;1.00;;
5785;SDS011;2919;48.630;9.000;2023-12-20T10:09:07;6.70;;;1.47;;
5785;SDS011;2919;48.630;9.000;2023-12-20T10:11:37;4.80;;;0.90;;
5785;SDS011;2919;48.630;9.000;2023-12-20T10:14:03;3.20;;;1.10;;
5785;SDS011;2919;48.630;9.000;2023-12-20T10:16:30;2.40;;;0.80;;
5785;SDS011;2919;48.630;9.000;2023-12-20T10:18:57;2.33;;;1.27;;
5785;SDS011;2919;48.630;9.000;2023-12-20T10:21:22;4.23;;;1.23;;
5785;SDS011;2919;48.630;9.000;2023-12-20T10:23:51;4.70;;;1.43;;
5785;SDS011;2919;48.630;9.000;2023-12-20T10:26:20;5.23;;;1.00;;
5785;SDS011;2919;48.630;9.000;2023-12-20T10:28:49;2.47;;;1.00;;
5785;SDS011;2919;48.630;9.000;2023-12-20T10:31:29;2.33;;;1.00;;
5785;SDS011;2919;48.630;9.000;2023-12-20T10:34:00;6.47;;;1.27;;
5785;SDS011;2919;48.630;9.000;2023-12-20T10:36:27;3.97;;;1.40;;
5785;SDS011;2919;48.630;9.000;2023-12-20T10:38:54;1.30;;;0.80;;
5785;SDS011;2919;48.630;9.000;2023-12-20T10:41:26;2.07;;;0.83;;
5785;SDS011;2919;48.630;9.000;2023-12-20T10:43:54;10.33;;;1.70;;
5785;SDS011;2919;48.630;9.000;2023-12-20T10:46:27;5.73;;;1.20;;
5785;SDS011;2919;48.630;9.000;2023-12-20T10:48:54;2.10;;;1.13;;
5785;SDS011;2919;48.630;9.000;2023-12-20T10:51:21;6.80;;;1.30;;
5785;SDS011;2919;48.630;9.000;2023-12-20T10:53:48;1.90;;;0.90;;
5785;SDS011;2919;48.630;9.000;2023-12-20T10:56:15;2.80;;;0.90;;
5785;SDS011;2919;48.630;9.000;2023-12-20T10:58:43;7.63;;;1.00;;
5785;SDS011;2919;48.630;9.000;2023-12-20T11:01:09;2.43;;;1.10;;
5785;SDS011;2919;48.630;9.000;2023-12-20T11:03:46;1.67;;;1.07;;
5785;SDS011;2919;48.630;9.000;2023-12-20T11:09:26;12.90;;;1.23;;
5785;SDS011;2919;48.630;9.000;2023-12-20T11:12:15;1.20;;;0.70;;
5785;SDS011;2919;48.630;9.000;2023-12-20T11:14:46;4.93;;;1.20;;
5785;SDS011;2919;48.630;9.000;2023-12-20T11:17:16;2.80;;;1.20;;
5785;SDS011;2919;48.630;9.000;2023-12-20T11:22:20;5.20;;;1.60;;
5785;SDS011;2919;48.630;9.000;2023-12-20T11:24:46;1.40;;;0.60;;
5785;SDS011;2919;48.630;9.000;2023-12-20T11:27:12;6.33;;;0.93;;
5785;SDS011;2919;48.630;9.000;2023-12-20T11:29:39;4.67;;;1.30;;
5785;SDS011;2919;48.630;9.000;2023-12-20T11:34:55;2.00;;;1.20;;
5785;SDS011;2919;48.630;9.000;2023-12-20T11:37:25;2.17;;;1.07;;
5785;SDS011;2919;48.630;9.000;2023-12-20T11:39:55;7.43;;;1.07;;
5785;SDS011;2919;48.630;9.000;2023-12-20T11:42:21;2.00;;;0.90;;
5785;SDS011;2919;48.630;9.000;2023-12-20T11:44:47;4.03;;;1.40;;
5785;SDS011;2919;48.630;9.000;2023-12-20T11:47:12;2.10;;;0.70;;
5785;SDS011;2919;48.630;9.000;2023-12-20T11:49:39;4.70;;;0.97;;
5785;SDS011;2919;48.630;9.000;2023-12-20T11:52:05;4.20;;;1.00;;
5785;SDS011;2919;48.630;9.000;2023-12-20T11:54:30;1.93;;;1.03;;
5785;SDS011;2919;48.630;9.000;2023-12-20T11:56:56;4.90;;;0.90;;
5785;SDS011;2919;48.630;9.000;2023-12-20T11:59:22;4.40;;;1.73;;
5785;SDS011;2919;48.630;9.000;2023-12-20T12:01:48;1.33;;;0.70;;
5785;SDS011;2919;48.630;9.000;2023-12-20T12:04:15;2.23;;;1.20;;
5785;SDS011;2919;48.630;9.000;2023-12-20T12:06:42;3.53;;;1.07;;
5785;SDS011;2919;48.630;9.000;2023-12-20T12:09:08;4.33;;;1.00;;
5785;SDS011;2919;48.630;9.000;2023-12-20T12:11:33;1.43;;;0.73;;
5785;SDS011;2919;48.630;9.000;2023-12-20T12:13:59;2.50;;;0.93;;
5785;SDS011;2919;48.630;9.000;2023-12-20T12:16:25;26.77;;;1.40;;
5785;SDS011;2919;48.630;9.000;2023-12-20T12:18:57;5.47;;;1.17;;
5785;SDS011;2919;48.630;9.000;2023-12-20T12:21:23;1.70;;;0.93;;
5785;SDS011;2919;48.630;9.000;2023-12-20T12:23:49;1.47;;;0.87;;
5785;SDS011;2919;48.630;9.000;2023-12-20T12:26:14;2.07;;;1.17;;
5785;SDS011;2919;48.630;9.000;2023-12-20T12:28:40;7.57;;;1.03;;
5785;SDS011;2919;48.630;9.000;2023-12-20T12:31:07;2.80;;;1.30;;
5785;SDS011;2919;48.630;9.000;2023-12-20T12:33:33;6.70;;;1.27;;
5785;SDS011;2919;48.630;9.000;2023-12-20T12:36:00;5.57;;;1.07;;
5785;SDS011;2919;48.630;9.000;2023-12-20T12:38:26;2.97;;;1.13;;
5785;SDS011;2919;48.630;9.000;2023-12-20T12:40:52;2.23;;;1.07;;
5785;SDS011;2919;48.630;9.000;2023-12-20T12:43:19;8.37;;;1.40;;
5785;SDS011;2919;48.630;9.000;2023-12-20T12:45:45;2.80;;;0.80;;
5785;SDS011;2919;48.630;9.000;2023-12-20T12:48:10;3.57;;;1.23;;
5785;SDS011;2919;48.630;9.000;2023-12-20T12:50:36;3.10;;;0.97;;
5785;SDS011;2919;48.630;9.000;2023-12-20T12:53:01;1.40;;;0.80;;
5785;SDS011;2919;48.630;9.000;2023-12-20T12:55:27;2.47;;;1.27;;
5785;SDS011;2919;48.630;9.000;2023-12-20T12:57:53;4.03;;;1.00;;
5785;SDS011;2919;48.630;9.000;2023-12-20T13:00:19;5.40;;;1.00;;
5785;SDS011;2919;48.630;9.000;2023-12-20T13:02:44;8.83;;;1.00;;
5785;SDS011;2919;48.630;9.000;2023-12-20T13:05:10;2.03;;;0.60;;
5785;SDS011;2919;48.630;9.000;2023-12-20T13:07:36;5.30;;;1.20;;
5785;SDS011;2919;48.630;9.000;2023-12-20T13:10:02;2.80;;;1.20;;
5785;SDS011;2919;48.630;9.000;2023-12-20T13:12:29;3.60;;;0.83;;
5785;SDS011;2919;48.630;9.000;2023-12-20T13:14:54;2.73;;;0.87;;
5785;SDS011;2919;48.630;9.000;2023-12-20T13:17:20;3.43;;;1.00;;
5785;SDS011;2919;48.630;9.000;2023-12-20T13:19:45;1.57;;;0.70;;
5785;SDS011;2919;48.630;9.000;2023-12-20T13:22:11;3.40;;;1.03;;
5785;SDS011;2919;48.630;9.000;2023-12-20T13:24:36;1.93;;;0.80;;
5785;SDS011;2919;48.630;9.000;2023-12-20T13:27:02;3.60;;;1.20;;
5785;SDS011;2919;48.630;9.000;2023-12-20T13:29:28;4.00;;;0.93;;
5785;SDS011;2919;48.630;9.000;2023-12-20T13:31:53;9.43;;;1.40;;
5785;SDS011;2919;48.630;9.000;2023-12-20T13:34:19;3.03;;;1.33;;
5785;SDS011;2919;48.630;9.000;2023-12-20T13:36:44;2.17;;;1.17;;
5785;SDS011;2919;48.630;9.000;2023-12-20T13:39:12;6.87;;;1.50;;
5785;SDS011;2919;48.630;9.000;2023-12-20T13:41:38;5.27;;;1.30;;
5785;SDS011;2919;48.630;9.000;2023-12-20T13:44:04;5.43;;;1.07;;
5785;SDS011;2919;48.630;9.000;2023-12-20T13:46:30;3.40;;;1.30;;
5785;SDS011;2919;48.630;9.000;2023-12-20T13:48:56;6.03;;;0.60;;
5785;SDS011;2919;48.630;9.000;2023-12-20T13:51:21;4.27;;;1.27;;
5785;SDS011;2919;48.630;9.000;2023-12-20T13:53:47;4.60;;;0.67;;
5785;SDS011;2919;48.630;9.000;2023-12-20T13:56:13;6.37;;;1.73;;
5785;SDS011;2919;48.630;9.000;2023-12-20T13:58:39;1.80;;;0.67;;
5785;SDS011;2919;48.630;9.000;2023-12-20T14:01:06;3.73;;;1.27;;
5785;SDS011;2919;48.630;9.000;2023-12-20T14:03:32;6.83;;;0.90;;
5785;SDS011;2919;48.630;9.000;2023-12-20T14:05:58;4.27;;;1.50;;
5785;SDS011;2919;48.630;9.000;2023-12-20T14:08:23;9.20;;;1.00;;
5785;SDS011;2919;48.630;9.000;2023-12-20T14:10:49;7.60;;;1.53;;
5785;SDS011;2919;48.630;9.000;2023-12-20T14:13:15;2.70;;;1.27;;
5785;SDS011;2919;48.630;9.000;2023-12-20T14:15:40;2.40;;;1.03;;
5785;SDS011;2919;48.630;9.000;2023-12-20T14:18:06;6.10;;;1.30;;
5785;SDS011;2919;48.630;9.000;2023-12-20T14:20:33;6.80;;;1.43;;
5785;SDS011;2919;48.630;9.000;2023-12-20T14:23:03;2.77;;;1.23;;
5785;SDS011;2919;48.630;9.000;2023-12-20T14:25:29;2.60;;;1.30;;
5785;SDS011;2919;48.630;9.000;2023-12-20T14:27:56;4.23;;;1.20;;
5785;SDS011;2919;48.630;9.000;2023-12-20T14:30:21;5.43;;;1.13;;
5785;SDS011;2919;48.630;9.000;2023-12-20T14:32:47;2.77;;;1.53;;
5785;SDS011;2919;48.630;9.000;2023-12-20T14:35:13;5.03;;;1.00;;
5785;SDS011;2919;48.630;9.000;2023-12-20T14:37:39;3.73;;;1.00;;
5785;SDS011;2919;48.630;9.000;2023-12-20T14:40:06;1.40;;;0.70;;
5785;SDS011;2919;48.630;9.000;2023-12-20T14:42:35;4.50;;;1.13;;
5785;SDS011;2919;48.630;9.000;2023-12-20T14:45:01;2.57;;;0.90;;
5785;SDS011;2919;48.630;9.000;2023-12-20T14:47:26;4.80;;;0.97;;
5785;SDS011;2919;48.630;9.000;2023-12-20T14:49:52;2.63;;;1.20;;
5785;SDS011;2919;48.630;9.000;2023-12-20T14:52:17;10.10;;;1.10;;
5785;SDS011;2919;48.630;9.000;2023-12-20T14:54:43;1.50;;;0.80;;
5785;SDS011;2919;48.630;9.000;2023-12-20T14:57:09;3.60;;;1.73;;
5785;SDS011;2919;48.630;9.000;2023-12-20T14:59:35;2.47;;;0.70;;
5785;SDS011;2919;48.630;9.000;2023-12-20T15:02:00;1.90;;;0.90;;
5785;SDS011;2919;48.630;9.000;2023-12-20T15:04:29;7.30;;;1.73;;
5785;SDS011;2919;48.630;9.000;2023-12-20T15:06:58;3.33;;;1.40;;
5785;SDS011;2919;48.630;9.000;2023-12-20T15:09:23;6.13;;;1.70;;
5785;SDS011;2919;48.630;9.000;2023-12-20T15:11:49;5.17;;;1.93;;
5785;SDS011;2919;48.630;9.000;2023-12-20T15:14:15;2.20;;;1.13;;
5785;SDS011;2919;48.630;9.000;2023-12-20T15:16:44;2.50;;;1.13;;